BAW891 UGTB-EGLL
Flight info
| Callsign | BAW891 |
|---|---|
| Flight time | N/A |
| Altitude | 36000 |
| Route | ZAGOT DCT BARUS DCT ROLIN UN644 SIN UW90 INB UL746 ODERO DCT OPT DCT SOKRU DCT VASIS DCT BEGLA DCT DEXIT DCT INBED DCT BOMBI DCT ADKUV DCT LENDO DCT SOGRI DCT DENUT L608 LOGAN |
| Aircraft | A20N/M-SDE2E3FGHIJ1RWXY/LB1 |
Departure
| Time | 2026-04-24 13:08 |
|---|---|
| Airport | Tbilisi International Airport (UGTB) |
Arrival
| Time | N/A |
|---|---|
| Airport | London Heathrow Airport (EGLL) |
| Time | Latitude | Longitude | Altitude | Speed | Heading |
|---|---|---|---|---|---|
| 2026-04-24 12:56 | 41.66821 | 44.96438 | 1572 ft | 0 kts | 43° |
| 2026-04-24 12:59 | 41.66820 | 44.96438 | 1572 ft | 0 kts | 43° |
| 2026-04-24 12:59 | 41.66817 | 44.96434 | 1571 ft | 2 kts | 43° |
| 2026-04-24 13:00 | 41.66806 | 44.96420 | 1570 ft | 2 kts | 43° |
| 2026-04-24 13:00 | 41.66795 | 44.96407 | 1570 ft | 2 kts | 43° |
| 2026-04-24 13:00 | 41.66784 | 44.96393 | 1569 ft | 2 kts | 43° |
| 2026-04-24 13:00 | 41.66773 | 44.96378 | 1568 ft | 2 kts | 68° |
| 2026-04-24 13:01 | 41.66771 | 44.96358 | 1567 ft | 2 kts | 97° |
| 2026-04-24 13:01 | 41.66775 | 44.96339 | 1567 ft | 1 kts | 128° |
| 2026-04-24 13:01 | 41.66780 | 44.96333 | 1567 ft | 1 kts | 137° |
| 2026-04-24 13:01 | 41.66782 | 44.96330 | 1567 ft | 0 kts | 134° |
| 2026-04-24 13:04 | 41.66764 | 44.96355 | 1567 ft | 6 kts | 133° |
| 2026-04-24 13:04 | 41.66716 | 44.96420 | 1565 ft | 12 kts | 143° |
| 2026-04-24 13:04 | 41.66619 | 44.96407 | 1558 ft | 17 kts | 194° |
| 2026-04-24 13:04 | 41.66489 | 44.96364 | 1550 ft | 21 kts | 194° |
| 2026-04-24 13:05 | 41.66334 | 44.96310 | 1540 ft | 24 kts | 195° |
| 2026-04-24 13:05 | 41.66164 | 44.96328 | 1531 ft | 26 kts | 154° |
| 2026-04-24 13:05 | 41.66035 | 44.96482 | 1523 ft | 20 kts | 138° |
| 2026-04-24 13:05 | 41.65960 | 44.96571 | 1516 ft | 16 kts | 138° |
| 2026-04-24 13:06 | 41.65882 | 44.96598 | 1508 ft | 9 kts | 193° |
| 2026-04-24 13:06 | 41.65844 | 44.96524 | 1508 ft | 9 kts | 262° |
| 2026-04-24 13:06 | 41.65854 | 44.96456 | 1510 ft | 5 kts | 313° |
| 2026-04-24 13:06 | 41.65858 | 44.96451 | 1510 ft | 0 kts | 316° |
| 2026-04-24 13:07 | 41.65987 | 44.96283 | 1520 ft | 58 kts | 317° |
| 2026-04-24 13:07 | 41.66427 | 44.95721 | 1532 ft | 117 kts | 317° |
| 2026-04-24 13:07 | 41.67129 | 44.94839 | 1553 ft | 165 kts | 316° |
| 2026-04-24 13:07 | 41.68017 | 44.93718 | 1914 ft | 178 kts | 316° |
| 2026-04-24 13:08 | 41.68949 | 44.92622 | 2493 ft | 181 kts | 317° |
| 2026-04-24 13:08 | 41.69862 | 44.91498 | 3159 ft | 181 kts | 316° |
| 2026-04-24 13:08 | 41.70771 | 44.90360 | 3604 ft | 188 kts | 316° |
| 2026-04-24 13:09 | 41.72781 | 44.87846 | 4216 ft | 219 kts | 316° |
| 2026-04-24 13:09 | 41.73943 | 44.86393 | 4502 ft | 238 kts | 316° |
| 2026-04-24 13:09 | 41.75180 | 44.84848 | 4894 ft | 254 kts | 316° |
| 2026-04-24 13:09 | 41.76479 | 44.83225 | 5541 ft | 259 kts | 316° |
| 2026-04-24 13:10 | 41.77773 | 44.81614 | 6341 ft | 258 kts | 316° |
| 2026-04-24 13:10 | 41.78952 | 44.79861 | 7116 ft | 256 kts | 297° |
| 2026-04-24 13:10 | 41.79388 | 44.77615 | 7834 ft | 258 kts | 272° |
| 2026-04-24 13:10 | 41.79332 | 44.75236 | 8613 ft | 258 kts | 269° |
| 2026-04-24 13:11 | 41.79266 | 44.72868 | 9362 ft | 258 kts | 269° |
| 2026-04-24 13:11 | 41.79214 | 44.70494 | 10096 ft | 258 kts | 269° |
| 2026-04-24 13:11 | 41.79176 | 44.68096 | 10620 ft | 267 kts | 268° |
| 2026-04-24 13:11 | 41.79139 | 44.65535 | 10932 ft | 283 kts | 268° |
| 2026-04-24 13:12 | 41.79102 | 44.62861 | 11233 ft | 299 kts | 268° |
| 2026-04-24 13:12 | 41.79067 | 44.59978 | 11517 ft | 314 kts | 268° |
| 2026-04-24 13:12 | 41.79032 | 44.57053 | 11797 ft | 328 kts | 268° |
| 2026-04-24 13:12 | 41.78997 | 44.53977 | 12294 ft | 335 kts | 267° |
| 2026-04-24 13:13 | 41.78963 | 44.50890 | 12926 ft | 337 kts | 267° |
| 2026-04-24 13:13 | 41.78931 | 44.47766 | 13484 ft | 341 kts | 266° |
| 2026-04-24 13:13 | 41.78898 | 44.44720 | 14048 ft | 344 kts | 265° |
| 2026-04-24 13:13 | 41.78856 | 44.41535 | 14646 ft | 346 kts | 266° |
| 2026-04-24 13:14 | 41.78816 | 44.38317 | 15253 ft | 348 kts | 266° |
| 2026-04-24 13:14 | 41.78774 | 44.35088 | 15839 ft | 349 kts | 265° |
| 2026-04-24 13:14 | 41.78733 | 44.31885 | 16425 ft | 350 kts | 265° |
| 2026-04-24 13:14 | 41.78692 | 44.28684 | 17002 ft | 351 kts | 265° |
| 2026-04-24 13:15 | 41.78650 | 44.25404 | 17452 ft | 356 kts | 265° |
| 2026-04-24 13:15 | 41.78603 | 44.22078 | 17876 ft | 361 kts | 265° |
| 2026-04-24 13:15 | 41.78558 | 44.18792 | 18387 ft | 363 kts | 265° |
| 2026-04-24 13:15 | 41.78566 | 44.15425 | 18910 ft | 366 kts | 268° |
| 2026-04-24 13:16 | 41.78707 | 44.12014 | 19399 ft | 369 kts | 270° |
| 2026-04-24 13:16 | 41.78982 | 44.08631 | 19893 ft | 372 kts | 272° |
| 2026-04-24 13:16 | 41.79309 | 44.05217 | 20343 ft | 375 kts | 272° |
| 2026-04-24 13:16 | 41.79637 | 44.01806 | 20800 ft | 377 kts | 272° |
| 2026-04-24 13:17 | 41.79967 | 43.98384 | 21255 ft | 379 kts | 273° |
| 2026-04-24 13:17 | 41.80302 | 43.94899 | 21749 ft | 380 kts | 273° |
| 2026-04-24 13:17 | 41.80633 | 43.91452 | 22216 ft | 380 kts | 273° |
| 2026-04-24 13:17 | 41.80970 | 43.87931 | 22625 ft | 383 kts | 273° |
| 2026-04-24 13:18 | 41.81301 | 43.84448 | 23048 ft | 384 kts | 273° |
| 2026-04-24 13:18 | 41.81620 | 43.81095 | 23468 ft | 385 kts | 273° |
| 2026-04-24 13:18 | 41.81947 | 43.77630 | 23891 ft | 386 kts | 273° |
| 2026-04-24 13:18 | 41.82281 | 43.74102 | 24302 ft | 386 kts | 273° |
| 2026-04-24 13:19 | 41.82618 | 43.70539 | 24677 ft | 387 kts | 272° |
| 2026-04-24 13:19 | 41.82952 | 43.66965 | 24983 ft | 390 kts | 272° |
| 2026-04-24 13:19 | 41.83285 | 43.63399 | 25321 ft | 391 kts | 272° |
| 2026-04-24 13:19 | 41.83613 | 43.59862 | 25678 ft | 391 kts | 273° |
| 2026-04-24 13:20 | 41.83950 | 43.56247 | 26021 ft | 392 kts | 272° |
| 2026-04-24 13:20 | 41.84282 | 43.52622 | 26314 ft | 393 kts | 273° |
| 2026-04-24 13:20 | 41.84604 | 43.49120 | 26633 ft | 393 kts | 272° |
| 2026-04-24 13:20 | 41.84937 | 43.45526 | 27044 ft | 391 kts | 272° |
| 2026-04-24 13:21 | 41.85262 | 43.41955 | 27468 ft | 388 kts | 272° |
| 2026-04-24 13:21 | 41.85588 | 43.38388 | 27839 ft | 387 kts | 272° |
| 2026-04-24 13:21 | 41.85906 | 43.34891 | 28205 ft | 385 kts | 272° |
| 2026-04-24 13:21 | 41.86218 | 43.31423 | 28562 ft | 384 kts | 272° |
| 2026-04-24 13:22 | 41.86531 | 43.27942 | 28911 ft | 383 kts | 272° |
| 2026-04-24 13:22 | 41.86842 | 43.24484 | 29284 ft | 381 kts | 272° |
| 2026-04-24 13:22 | 41.87152 | 43.21065 | 29638 ft | 380 kts | 271° |
| 2026-04-24 13:22 | 41.87461 | 43.17586 | 29997 ft | 378 kts | 271° |
| 2026-04-24 13:23 | 41.87769 | 43.14109 | 30327 ft | 377 kts | 271° |
| 2026-04-24 13:23 | 41.88072 | 43.10688 | 30628 ft | 376 kts | 271° |
| 2026-04-24 13:23 | 41.88365 | 43.07333 | 30917 ft | 375 kts | 272° |
| 2026-04-24 13:23 | 41.88666 | 43.03902 | 31215 ft | 373 kts | 272° |
| 2026-04-24 13:24 | 41.88954 | 43.00608 | 31492 ft | 372 kts | 272° |
| 2026-04-24 13:24 | 41.89251 | 42.97208 | 31757 ft | 371 kts | 271° |
| 2026-04-24 13:24 | 41.89540 | 42.93905 | 31983 ft | 370 kts | 271° |
| 2026-04-24 13:24 | 41.89834 | 42.90522 | 32183 ft | 370 kts | 271° |
| 2026-04-24 13:25 | 41.90064 | 42.87120 | 32369 ft | 369 kts | 270° |
| 2026-04-24 13:25 | 41.90176 | 42.83761 | 32590 ft | 367 kts | 267° |
| 2026-04-24 13:25 | 41.90179 | 42.80475 | 32814 ft | 365 kts | 265° |
| 2026-04-24 13:25 | 41.90075 | 42.77093 | 33032 ft | 363 kts | 264° |
| 2026-04-24 13:26 | 41.89948 | 42.73758 | 33251 ft | 361 kts | 264° |
| 2026-04-24 13:26 | 41.89826 | 42.70478 | 33396 ft | 361 kts | 264° |
| 2026-04-24 13:26 | 41.89698 | 42.67178 | 33567 ft | 361 kts | 264° |
| 2026-04-24 13:26 | 41.89570 | 42.63890 | 33711 ft | 361 kts | 264° |
| 2026-04-24 13:27 | 41.89438 | 42.60548 | 33855 ft | 361 kts | 264° |
| 2026-04-24 13:27 | 41.89304 | 42.57309 | 34026 ft | 360 kts | 264° |
| 2026-04-24 13:27 | 41.89175 | 42.54095 | 34132 ft | 360 kts | 264° |
| 2026-04-24 13:27 | 41.89037 | 42.50784 | 34211 ft | 361 kts | 264° |
| 2026-04-24 13:28 | 41.88901 | 42.47463 | 34321 ft | 361 kts | 264° |
| 2026-04-24 13:28 | 41.88766 | 42.44183 | 34406 ft | 361 kts | 264° |
| 2026-04-24 13:28 | 41.88488 | 42.37525 | 34560 ft | 363 kts | 264° |
| 2026-04-24 13:29 | 41.88199 | 42.30823 | 34725 ft | 364 kts | 264° |
| 2026-04-24 13:29 | 41.87911 | 42.24166 | 34878 ft | 365 kts | 264° |
| 2026-04-24 13:30 | 41.87613 | 42.17378 | 34978 ft | 368 kts | 264° |
| 2026-04-24 13:30 | 41.87315 | 42.10625 | 35131 ft | 369 kts | 264° |
| 2026-04-24 13:31 | 41.87017 | 42.03980 | 35199 ft | 372 kts | 264° |
| 2026-04-24 13:31 | 41.86711 | 41.97282 | 35328 ft | 373 kts | 263° |
| 2026-04-24 13:32 | 41.86402 | 41.90625 | 35444 ft | 374 kts | 264° |
| 2026-04-24 13:32 | 41.86084 | 41.83836 | 35541 ft | 376 kts | 264° |
| 2026-04-24 13:33 | 41.85759 | 41.77000 | 35615 ft | 377 kts | 264° |
| 2026-04-24 13:33 | 41.85431 | 41.70153 | 35701 ft | 378 kts | 264° |
| 2026-04-24 13:34 | 41.85092 | 41.63184 | 35759 ft | 380 kts | 264° |
| 2026-04-24 13:34 | 41.84751 | 41.56251 | 35889 ft | 380 kts | 264° |
| 2026-04-24 13:35 | 41.84407 | 41.49289 | 35919 ft | 382 kts | 264° |
| 2026-04-24 13:35 | 41.84057 | 41.42348 | 36001 ft | 382 kts | 264° |
| 2026-04-24 13:36 | 41.83704 | 41.35456 | 36006 ft | 382 kts | 264° |
| 2026-04-24 13:36 | 41.83354 | 41.28715 | 36030 ft | 383 kts | 264° |
| 2026-04-24 13:37 | 41.82975 | 41.21408 | 36028 ft | 383 kts | 263° |
| 2026-04-24 13:37 | 41.82784 | 41.17773 | 35779 ft | 383 kts | 264° |
| 2026-04-24 13:37 | 41.82601 | 41.14351 | 35898 ft | 381 kts | 264° |
| 2026-04-24 13:38 | 41.82223 | 41.07310 | 35981 ft | 383 kts | 264° |
| 2026-04-24 13:38 | 41.81840 | 41.00214 | 36018 ft | 386 kts | 264° |
| 2026-04-24 13:39 | 41.81459 | 40.93217 | 36027 ft | 386 kts | 264° |
| 2026-04-24 13:39 | 41.81067 | 40.86140 | 36021 ft | 386 kts | 264° |